Terminal Aerodrome Forecast
Issued by NWS

Home | Current Version | Previous Version | Text Only | Print | Product List | Glossary On
Versions: 1 2 3 4 5 6 7 8 9 10 11 12 13 14 15 16 17 18 19 20 21 22 23 24 25 26 27 28 29
000
FTUS42 KCAE 220900 AAC
TAFCUB
TAF AMD
KCUB 220948Z 2210/2306 24005KT P6SM VCSH BKN060 OVC100
      TEMPO 2210/2212 -SHRA
     FM221300 35006KT P6SM BKN050 BKN080
     FM222100 04006KT P6SM SCT040 BKN100
     FM222300 VRB03KT P6SM BKN250=

USA.gov is the U.S. government's official web portal to all federal, state and local government web resources and services.